createdAt,value
2022-11-21T00:02:37.022Z,5.78
2022-11-21T00:07:39.516Z,5.73
2022-11-21T00:12:41.972Z,5.77
2022-11-21T00:17:44.459Z,5.79
2022-11-21T00:22:47.856Z,5.63
2022-11-21T00:27:51.656Z,5.56
2022-11-21T00:32:54.100Z,5.58
2022-11-21T00:37:56.492Z,5.49
2022-11-21T00:43:01.646Z,5.42
2022-11-21T00:48:04.569Z,5.40
2022-11-21T00:53:07.170Z,5.36
2022-11-21T00:58:09.605Z,5.25
2022-11-21T01:03:12.018Z,5.08
2022-11-21T01:08:14.435Z,5.03
2022-11-21T01:13:16.961Z,4.97
2022-11-21T01:18:19.948Z,4.98
2022-11-21T01:23:22.583Z,5.02
2022-11-21T01:28:24.975Z,5.09
2022-11-21T01:33:27.421Z,5.17
2022-11-21T01:38:29.841Z,5.18
2022-11-21T01:43:32.694Z,5.00
2022-11-21T01:48:50.371Z,4.94
2022-11-21T01:53:59.305Z,4.84
2022-11-21T01:59:04.949Z,4.90
2022-11-21T02:04:08.707Z,4.89
2022-11-21T02:09:11.148Z,4.88
2022-11-21T02:14:13.605Z,4.93
2022-11-21T02:19:47.706Z,4.96
2022-11-21T02:25:06.224Z,4.98
2022-11-21T02:30:10.712Z,4.86
2022-11-21T02:35:14.548Z,4.85
2022-11-21T02:40:22.672Z,4.77
2022-11-21T02:45:33.682Z,4.78
2022-11-21T02:50:38.410Z,4.85
2022-11-21T02:55:41.136Z,4.88
2022-11-21T03:00:44.290Z,4.89
2022-11-21T03:05:50.480Z,4.80
2022-11-21T03:10:52.874Z,4.75
2022-11-21T03:15:55.598Z,4.70
2022-11-21T03:20:58.928Z,4.69
2022-11-21T03:26:01.335Z,4.69
2022-11-21T03:31:03.833Z,4.67
2022-11-21T03:36:06.412Z,4.71
2022-11-21T03:41:28.795Z,4.79
2022-11-21T03:46:32.971Z,4.91
2022-11-21T03:51:36.438Z,4.94
2022-11-21T03:56:41.807Z,4.90
2022-11-21T04:01:44.296Z,4.91
2022-11-21T04:06:47.040Z,4.92
2022-11-21T04:11:49.786Z,4.99
2022-11-21T04:16:52.203Z,5.01
2022-11-21T04:21:54.637Z,5.03
2022-11-21T04:26:57.424Z,5.09
2022-11-21T04:31:59.822Z,5.04
2022-11-21T04:37:05.260Z,5.12
2022-11-21T04:42:09.952Z,5.13
2022-11-21T04:47:12.360Z,5.19
2022-11-21T04:52:14.864Z,5.24
2022-11-21T04:57:17.866Z,5.28
2022-11-21T05:02:23.493Z,5.24
2022-11-21T05:07:25.933Z,5.25
2022-11-21T05:12:47.127Z,5.21
2022-11-21T05:17:49.799Z,5.19
2022-11-21T05:22:52.848Z,5.14
2022-11-21T05:27:58.315Z,5.13
2022-11-21T05:33:00.810Z,5.15
2022-11-21T05:38:04.067Z,5.16
2022-11-21T05:43:25.152Z,5.22
2022-11-21T05:48:27.579Z,5.24
2022-11-21T05:53:29.948Z,5.33
2022-11-21T05:58:32.470Z,5.33
2022-11-21T06:03:41.732Z,5.62
2022-11-21T06:08:46.510Z,6.04
2022-11-21T06:13:52.356Z,5.93
2022-11-21T06:18:58.603Z,5.75
2022-11-21T06:24:01.389Z,5.73
2022-11-21T06:29:03.873Z,5.73
2022-11-21T06:34:06.305Z,5.71
2022-11-21T06:39:11.492Z,5.69
2022-11-21T06:44:13.860Z,5.56
2022-11-21T06:49:16.263Z,5.45
2022-11-21T06:54:18.994Z,5.33
2022-11-21T06:59:21.510Z,5.31
2022-11-21T07:04:23.904Z,5.22
2022-11-21T07:09:33.464Z,5.14
2022-11-21T07:14:36.293Z,5.25
2022-11-21T07:19:41.043Z,5.19
2022-11-21T07:24:43.663Z,5.51
2022-11-21T07:29:46.355Z,5.60
2022-11-21T07:34:49.244Z,5.26
2022-11-21T07:39:51.895Z,5.10
2022-11-21T07:44:54.381Z,5.10
2022-11-21T07:49:56.789Z,5.39
2022-11-21T07:55:05.781Z,5.18
2022-11-21T08:00:09.013Z,5.07
2022-11-21T08:05:17.448Z,5.12
2022-11-21T08:10:20.324Z,5.05
2022-11-21T08:15:22.749Z,5.04
2022-11-21T08:20:25.159Z,5.19
2022-11-21T08:25:27.613Z,5.48
2022-11-21T08:30:30.665Z,6.27
2022-11-21T08:35:35.443Z,7.06
2022-11-21T08:40:37.865Z,7.17
2022-11-21T08:45:40.352Z,7.84
2022-11-21T08:50:42.859Z,7.08
2022-11-21T08:55:45.494Z,6.71
2022-11-21T09:00:48.300Z,6.82
2022-11-21T09:05:50.990Z,6.78
2022-11-21T09:10:57.494Z,7.17
2022-11-21T09:16:32.800Z,7.25
2022-11-21T09:21:35.402Z,7.16
2022-11-21T09:26:37.914Z,7.31
2022-11-21T09:31:40.961Z,7.55
2022-11-21T09:36:43.552Z,7.92
2022-11-21T09:41:57.986Z,8.89
2022-11-21T09:47:30.663Z,8.64
2022-11-21T09:52:39.726Z,8.94
2022-11-21T09:57:42.282Z,9.14
2022-11-21T10:02:44.811Z,9.21
2022-11-21T10:07:48.384Z,9.55
2022-11-21T10:13:21.505Z,8.88
2022-11-21T10:18:43.469Z,8.87
2022-11-21T10:24:14.866Z,9.53
2022-11-21T10:29:29.354Z,9.04
2022-11-21T10:34:37.944Z,9.08
2022-11-21T10:39:49.071Z,9.78
2022-11-21T10:45:10.154Z,9.27
2022-11-21T10:50:40.121Z,9.69
2022-11-21T10:55:59.700Z,10.11
2022-11-21T11:01:02.335Z,9.59
2022-11-21T11:06:04.825Z,9.23
2022-11-21T11:11:15.036Z,11.03
2022-11-21T11:16:19.686Z,11.72
2022-11-21T11:21:25.004Z,10.24
2022-11-21T11:26:30.005Z,10.58
2022-11-21T11:31:42.205Z,9.83
2022-11-21T11:37:00.089Z,10.09
2022-11-21T11:42:30.451Z,13.77
2022-11-21T11:47:43.187Z,17.54
2022-11-21T11:53:02.359Z,17.83
2022-11-21T11:58:29.204Z,14.47
2022-11-21T12:04:00.313Z,15.62
2022-11-21T12:09:11.918Z,13.65
2022-11-21T12:14:55.749Z,11.61
2022-11-21T12:19:59.560Z,10.28
2022-11-21T12:25:02.041Z,10.34
2022-11-21T12:30:26.016Z,10.86
2022-11-21T12:35:49.612Z,10.96
2022-11-21T12:41:32.583Z,11.21
2022-11-21T12:47:03.404Z,11.33
2022-11-21T12:52:34.577Z,11.60
2022-11-21T12:58:06.356Z,11.34
2022-11-21T13:03:28.132Z,10.92
2022-11-21T13:08:34.890Z,11.38
2022-11-21T13:13:41.146Z,11.07
2022-11-21T13:18:48.267Z,10.37
2022-11-21T13:23:50.977Z,10.01
2022-11-21T13:29:12.009Z,10.12
2022-11-21T13:34:35.254Z,10.20
2022-11-21T13:39:41.694Z,10.51
2022-11-21T13:44:44.167Z,10.37
2022-11-21T13:50:20.471Z,10.30
2022-11-21T13:55:37.979Z,10.34
2022-11-21T14:01:07.915Z,10.24
2022-11-21T14:06:10.544Z,10.42
2022-11-21T14:11:22.414Z,10.66
2022-11-21T14:16:34.530Z,9.90
2022-11-21T14:21:37.362Z,9.62
2022-11-21T14:26:51.931Z,9.45
2022-11-21T14:31:55.713Z,9.38
2022-11-21T14:37:05.017Z,9.26
2022-11-21T14:42:13.819Z,9.41
2022-11-21T14:47:26.342Z,9.42
2022-11-21T14:52:31.776Z,9.36
2022-11-21T14:57:39.008Z,9.29
2022-11-21T15:02:42.481Z,9.28
2022-11-21T15:07:47.789Z,9.35
2022-11-21T15:13:00.029Z,9.60
2022-11-21T15:23:35.964Z,9.42
2022-11-21T15:28:39.602Z,9.47
2022-11-21T15:34:27.217Z,9.41
2022-11-21T15:39:23.370Z,9.13
2022-11-21T15:44:28.849Z,8.91
2022-11-21T15:49:33.247Z,8.94
2022-11-21T15:54:53.962Z,9.12
2022-11-21T15:59:56.464Z,8.85
2022-11-21T16:04:58.922Z,8.62
2022-11-21T16:10:01.301Z,8.53
2022-11-21T16:15:03.880Z,8.46
2022-11-21T16:20:06.691Z,8.73
2022-11-21T16:25:09.756Z,8.69
2022-11-21T16:30:13.143Z,8.77
2022-11-21T16:35:15.806Z,8.95
2022-11-21T16:40:18.514Z,8.99
2022-11-21T16:45:21.188Z,8.77
2022-11-21T16:50:23.618Z,8.41
2022-11-21T16:55:26.193Z,8.22
2022-11-21T17:00:29.359Z,8.48
2022-11-21T17:05:31.803Z,8.61
2022-11-21T17:10:34.351Z,8.64
2022-11-21T17:15:36.789Z,8.67
2022-11-21T17:20:39.264Z,8.43
2022-11-21T17:25:41.684Z,8.23
2022-11-21T17:30:44.288Z,8.08
2022-11-21T17:35:47.099Z,8.22
2022-11-21T17:41:00.723Z,8.40
2022-11-21T17:46:10.189Z,8.55
2022-11-21T17:51:15.396Z,7.94
2022-11-21T17:56:23.786Z,7.92
2022-11-21T18:01:27.077Z,8.14
2022-11-21T18:06:41.115Z,8.11
2022-11-21T18:11:43.829Z,8.41
2022-11-21T18:16:52.763Z,8.25
2022-11-21T18:21:55.958Z,8.40
2022-11-21T18:26:58.383Z,8.55
2022-11-21T18:32:00.790Z,8.27
2022-11-21T18:37:03.278Z,8.16
2022-11-21T18:42:05.769Z,8.04
2022-11-21T18:47:19.602Z,8.32
2022-11-21T18:52:25.735Z,8.43
2022-11-21T18:57:28.107Z,8.32
2022-11-21T19:02:30.774Z,8.06
2022-11-21T19:07:33.318Z,8.25
2022-11-21T19:12:39.498Z,8.06
2022-11-21T19:17:42.543Z,8.06
2022-11-21T19:22:45.128Z,8.14
2022-11-21T19:27:47.663Z,8.11
2022-11-21T19:32:50.548Z,8.07
2022-11-21T19:37:53.341Z,8.06
2022-11-21T19:42:56.106Z,8.19
2022-11-21T19:47:59.119Z,8.39
2022-11-21T19:53:04.517Z,8.29
2022-11-21T19:58:07.064Z,8.43
2022-11-21T20:03:09.981Z,8.12
2022-11-21T20:08:17.695Z,7.96
2022-11-21T20:13:21.033Z,7.91
2022-11-21T20:18:23.637Z,7.81
2022-11-21T20:23:26.106Z,7.82
2022-11-21T20:28:28.688Z,7.89
2022-11-21T20:33:35.883Z,7.93
2022-11-21T20:38:38.391Z,7.83
2022-11-21T20:44:24.483Z,7.67
2022-11-21T20:49:03.438Z,7.58
2022-11-21T20:54:05.976Z,7.47
2022-11-21T20:59:08.583Z,7.52
2022-11-21T21:04:11.525Z,7.65
2022-11-21T21:09:16.327Z,7.96
2022-11-21T21:14:22.002Z,8.25
2022-11-21T21:19:24.543Z,8.05
2022-11-21T21:24:27.810Z,8.05
2022-11-21T21:29:30.585Z,7.87
2022-11-21T21:34:33.541Z,7.76
2022-11-21T21:39:39.138Z,7.68
2022-11-21T21:44:41.824Z,7.66
2022-11-21T21:49:44.215Z,7.82
2022-11-21T21:54:46.918Z,7.72
2022-11-21T21:59:49.620Z,7.68
2022-11-21T22:04:52.561Z,7.57
2022-11-21T22:09:55.596Z,7.57
2022-11-21T22:14:59.180Z,7.45
2022-11-21T22:20:01.633Z,7.33
2022-11-21T22:25:04.518Z,7.27
2022-11-21T22:30:10.626Z,7.25
2022-11-21T22:35:13.039Z,7.41
2022-11-21T22:40:15.834Z,7.33
2022-11-21T22:45:18.325Z,7.34
2022-11-21T22:50:20.779Z,7.45
2022-11-21T22:55:26.134Z,7.40
2022-11-21T23:00:31.339Z,7.43
2022-11-21T23:05:35.986Z,7.38
2022-11-21T23:10:38.351Z,7.31
2022-11-21T23:15:40.707Z,7.09
2022-11-21T23:20:43.773Z,7.32
2022-11-21T23:25:46.536Z,7.56
2022-11-21T23:30:50.362Z,7.31
2022-11-21T23:35:52.810Z,7.31
2022-11-21T23:40:55.405Z,7.41
2022-11-21T23:45:58.068Z,7.69
2022-11-21T23:51:00.671Z,7.70
2022-11-21T23:56:03.023Z,7.48
